UAL42 KEWR-EDDF
Flight info
| Callsign | UAL42 |
|---|---|
| Flight time | N/A |
| Altitude | 31000 |
| Route | GREKI DCT JUDDS DCT MARTN DCT CBIRD DCT TAFFY N809A IRLOK/M083F330 DCT 5630N05000W 5730N04000W 5730N03000W 5630N02000W DCT ETARI/N0481F330 DCT MOGLO DCT ULTAG/N0475F350 DCT BOFUM Q37 MALUD UL975 WAL M16 DOLAS DCT NAVPI DCT NOLRU DCT DIXAT DIXAT1D |
| Aircraft | B77W/H-SDE1E2E3FGHIJ2J3J4J5M1RWXY/LB1D1 |
Departure
| Time | 2026-05-01 11:43 |
|---|---|
| Airport | Newark Liberty International Airport (KEWR) |
Arrival
| Time | N/A |
|---|---|
| Airport | Frankfurt Main Airport (EDDF) |
| Time | Latitude | Longitude | Altitude | Speed | Heading |
|---|---|---|---|---|---|
| 2026-05-01 10:56 | 40.69674 | -74.17678 | 27 ft | 0 kts | 165° |
| 2026-05-01 11:31 | 40.69693 | -74.17684 | 27 ft | 3 kts | 165° |
| 2026-05-01 11:31 | 40.69712 | -74.17691 | 27 ft | 2 kts | 165° |
| 2026-05-01 11:32 | 40.69729 | -74.17697 | 27 ft | 3 kts | 161° |
| 2026-05-01 11:32 | 40.69749 | -74.17706 | 27 ft | 3 kts | 163° |
| 2026-05-01 11:32 | 40.69768 | -74.17711 | 27 ft | 2 kts | 179° |
| 2026-05-01 11:32 | 40.69786 | -74.17711 | 27 ft | 3 kts | 192° |
| 2026-05-01 11:33 | 40.69805 | -74.17702 | 26 ft | 3 kts | 211° |
| 2026-05-01 11:33 | 40.69822 | -74.17686 | 26 ft | 3 kts | 224° |
| 2026-05-01 11:33 | 40.69836 | -74.17667 | 27 ft | 3 kts | 225° |
| 2026-05-01 11:33 | 40.69851 | -74.17650 | 27 ft | 3 kts | 234° |
| 2026-05-01 11:34 | 40.69857 | -74.17634 | 27 ft | 3 kts | 300° |
| 2026-05-01 11:34 | 40.69850 | -74.17625 | 27 ft | 3 kts | 17° |
| 2026-05-01 11:34 | 40.69840 | -74.17632 | 26 ft | 3 kts | 40° |
| 2026-05-01 11:34 | 40.69824 | -74.17650 | 26 ft | 3 kts | 40° |
| 2026-05-01 11:35 | 40.69817 | -74.17659 | 27 ft | 0 kts | 40° |
| 2026-05-01 11:37 | 40.69826 | -74.17648 | 27 ft | 9 kts | 40° |
| 2026-05-01 11:38 | 40.69899 | -74.17560 | 27 ft | 15 kts | 46° |
| 2026-05-01 11:38 | 40.69974 | -74.17464 | 27 ft | 15 kts | 46° |
| 2026-05-01 11:38 | 40.70053 | -74.17377 | 27 ft | 15 kts | 19° |
| 2026-05-01 11:38 | 40.70117 | -74.17281 | 27 ft | 15 kts | 84° |
| 2026-05-01 11:39 | 40.70111 | -74.17144 | 27 ft | 15 kts | 95° |
| 2026-05-01 11:39 | 40.70101 | -74.17007 | 27 ft | 15 kts | 95° |
| 2026-05-01 11:39 | 40.70092 | -74.16870 | 27 ft | 15 kts | 95° |
| 2026-05-01 11:39 | 40.70083 | -74.16733 | 26 ft | 15 kts | 95° |
| 2026-05-01 11:40 | 40.70074 | -74.16595 | 31 ft | 15 kts | 95° |
| 2026-05-01 11:40 | 40.70067 | -74.16495 | 26 ft | 0 kts | 95° |
| 2026-05-01 11:40 | 40.70067 | -74.16488 | 25 ft | 4 kts | 95° |
| 2026-05-01 11:41 | 40.70056 | -74.16402 | 29 ft | 11 kts | 118° |
| 2026-05-01 11:41 | 40.69984 | -74.16393 | 27 ft | 11 kts | 200° |
| 2026-05-01 11:41 | 40.69967 | -74.16403 | 23 ft | 0 kts | 205° |
| 2026-05-01 11:41 | 40.69948 | -74.16415 | 26 ft | 18 kts | 205° |
| 2026-05-01 11:42 | 40.69621 | -74.16625 | 27 ft | 85 kts | 206° |
| 2026-05-01 11:42 | 40.68898 | -74.17084 | 27 ft | 144 kts | 206° |
| 2026-05-01 11:42 | 40.67850 | -74.17766 | 41 ft | 186 kts | 209° |
| 2026-05-01 11:42 | 40.66724 | -74.18573 | 538 ft | 185 kts | 212° |
| 2026-05-01 11:43 | 40.65572 | -74.19452 | 868 ft | 198 kts | 213° |
| 2026-05-01 11:43 | 40.64382 | -74.20389 | 1307 ft | 206 kts | 213° |
| 2026-05-01 11:43 | 40.63142 | -74.21374 | 1772 ft | 211 kts | 213° |
| 2026-05-01 11:44 | 40.60445 | -74.23622 | 2033 ft | 248 kts | 205° |
| 2026-05-01 11:44 | 40.58716 | -74.24019 | 2357 ft | 262 kts | 174° |
| 2026-05-01 11:44 | 40.56980 | -74.23238 | 2788 ft | 270 kts | 145° |
| 2026-05-01 11:44 | 40.55693 | -74.21452 | 3310 ft | 273 kts | 116° |
| 2026-05-01 11:45 | 40.55171 | -74.19089 | 3837 ft | 271 kts | 88° |
| 2026-05-01 11:45 | 40.55407 | -74.16641 | 4363 ft | 271 kts | 73° |
| 2026-05-01 11:45 | 40.55891 | -74.14228 | 4932 ft | 274 kts | 71° |
| 2026-05-01 11:45 | 40.56487 | -74.11842 | 5390 ft | 275 kts | 58° |
| 2026-05-01 11:46 | 40.57779 | -74.10056 | 5782 ft | 271 kts | 23° |
| 2026-05-01 11:46 | 40.59521 | -74.09201 | 6228 ft | 269 kts | 14° |
| 2026-05-01 11:46 | 40.61306 | -74.08359 | 6712 ft | 274 kts | 18° |
| 2026-05-01 11:46 | 40.63064 | -74.07348 | 7306 ft | 277 kts | 22° |
| 2026-05-01 11:47 | 40.64795 | -74.06194 | 7825 ft | 281 kts | 25° |
| 2026-05-01 11:47 | 40.66508 | -74.04918 | 8350 ft | 285 kts | 27° |
| 2026-05-01 11:47 | 40.68212 | -74.03544 | 8831 ft | 290 kts | 29° |
| 2026-05-01 11:47 | 40.69909 | -74.02095 | 9355 ft | 292 kts | 30° |
| 2026-05-01 11:48 | 40.71612 | -74.00577 | 9837 ft | 296 kts | 31° |
| 2026-05-01 11:48 | 40.73316 | -73.99024 | 10142 ft | 302 kts | 31° |
| 2026-05-01 11:48 | 40.75088 | -73.97387 | 10290 ft | 321 kts | 32° |
| 2026-05-01 11:48 | 40.76945 | -73.95635 | 10436 ft | 336 kts | 32° |
| 2026-05-01 11:49 | 40.78899 | -73.93791 | 10587 ft | 355 kts | 32° |
| 2026-05-01 11:49 | 40.80954 | -73.91828 | 10739 ft | 374 kts | 33° |
| 2026-05-01 11:49 | 40.83094 | -73.89768 | 11122 ft | 386 kts | 33° |
| 2026-05-01 11:49 | 40.85284 | -73.87646 | 11614 ft | 395 kts | 33° |
| 2026-05-01 11:50 | 40.87517 | -73.85483 | 12221 ft | 402 kts | 32° |
| 2026-05-01 11:50 | 40.89753 | -73.83314 | 12935 ft | 405 kts | 32° |
| 2026-05-01 11:50 | 40.92063 | -73.81063 | 13639 ft | 409 kts | 32° |
| 2026-05-01 11:50 | 40.94335 | -73.78851 | 14294 ft | 413 kts | 32° |
| 2026-05-01 11:51 | 40.96700 | -73.76552 | 14936 ft | 419 kts | 32° |
| 2026-05-01 11:51 | 40.99025 | -73.74293 | 15569 ft | 423 kts | 32° |
| 2026-05-01 11:51 | 41.01407 | -73.71977 | 16209 ft | 427 kts | 32° |
| 2026-05-01 11:51 | 41.03812 | -73.69636 | 16833 ft | 432 kts | 32° |
| 2026-05-01 11:52 | 41.06243 | -73.67269 | 17454 ft | 435 kts | 32° |
| 2026-05-01 11:52 | 41.08696 | -73.64877 | 18036 ft | 440 kts | 32° |
| 2026-05-01 11:52 | 41.11174 | -73.62457 | 18592 ft | 445 kts | 32° |
| 2026-05-01 11:52 | 41.13675 | -73.60014 | 19146 ft | 449 kts | 32° |
| 2026-05-01 11:53 | 41.16203 | -73.57541 | 19686 ft | 453 kts | 32° |
| 2026-05-01 11:53 | 41.18755 | -73.55041 | 20252 ft | 457 kts | 32° |
| 2026-05-01 11:53 | 41.21316 | -73.52530 | 20792 ft | 460 kts | 32° |
| 2026-05-01 11:53 | 41.23902 | -73.49991 | 21321 ft | 464 kts | 32° |
| 2026-05-01 11:54 | 41.26501 | -73.47438 | 21826 ft | 467 kts | 32° |
| 2026-05-01 11:54 | 41.29124 | -73.44859 | 22306 ft | 471 kts | 32° |
| 2026-05-01 11:54 | 41.31766 | -73.42259 | 22795 ft | 474 kts | 32° |
| 2026-05-01 11:54 | 41.34431 | -73.39629 | 23244 ft | 478 kts | 32° |
| 2026-05-01 11:55 | 41.37107 | -73.36987 | 23694 ft | 482 kts | 33° |
| 2026-05-01 11:55 | 41.39813 | -73.34317 | 24122 ft | 485 kts | 33° |
| 2026-05-01 11:55 | 41.42531 | -73.31632 | 24559 ft | 488 kts | 33° |
| 2026-05-01 11:55 | 41.45266 | -73.28924 | 24989 ft | 491 kts | 33° |
| 2026-05-01 11:56 | 41.48018 | -73.26198 | 25410 ft | 494 kts | 33° |
| 2026-05-01 11:56 | 41.50780 | -73.23459 | 25791 ft | 498 kts | 33° |
| 2026-05-01 11:56 | 41.53568 | -73.20690 | 26152 ft | 501 kts | 33° |
| 2026-05-01 11:56 | 41.56369 | -73.17906 | 26542 ft | 503 kts | 33° |
| 2026-05-01 11:57 | 41.59183 | -73.15122 | 26909 ft | 503 kts | 32° |
| 2026-05-01 11:57 | 41.62234 | -73.12849 | 27082 ft | 502 kts | 17° |
| 2026-05-01 11:57 | 41.65587 | -73.11680 | 27363 ft | 497 kts | 3° |
| 2026-05-01 11:57 | 41.69002 | -73.11496 | 27715 ft | 489 kts | 350° |
| 2026-05-01 11:58 | 41.72354 | -73.12096 | 27983 ft | 487 kts | 346° |
| 2026-05-01 11:58 | 41.75720 | -73.12757 | 28198 ft | 491 kts | 347° |
| 2026-05-01 11:58 | 41.82525 | -73.14007 | 28808 ft | 496 kts | 347° |
| 2026-05-01 11:59 | 41.85906 | -73.14596 | 29088 ft | 498 kts | 348° |
| 2026-05-01 11:59 | 41.89392 | -73.15191 | 29426 ft | 498 kts | 348° |
| 2026-05-01 11:59 | 41.92822 | -73.15772 | 29791 ft | 498 kts | 348° |
| 2026-05-01 12:00 | 41.99651 | -73.16929 | 30459 ft | 497 kts | 348° |
| 2026-05-01 12:00 | 42.03082 | -73.17513 | 30803 ft | 497 kts | 348° |
| 2026-05-01 12:00 | 42.10014 | -73.18703 | 30924 ft | 506 kts | 348° |
| 2026-05-01 12:01 | 42.13503 | -73.19301 | 30937 ft | 505 kts | 348° |
| 2026-05-01 12:01 | 42.20447 | -73.20489 | 30929 ft | 502 kts | 348° |
| 2026-05-01 12:02 | 42.27371 | -73.21682 | 30941 ft | 501 kts | 348° |
| 2026-05-01 12:02 | 42.34292 | -73.22874 | 30937 ft | 502 kts | 348° |
| 2026-05-01 12:03 | 42.41229 | -73.24073 | 30917 ft | 503 kts | 348° |
| 2026-05-01 12:03 | 42.48179 | -73.25277 | 30917 ft | 504 kts | 348° |
| 2026-05-01 12:04 | 42.55154 | -73.26175 | 30916 ft | 508 kts | 0° |
| 2026-05-01 12:04 | 42.58652 | -73.25399 | 30942 ft | 513 kts | 14° |
| 2026-05-01 12:04 | 42.61990 | -73.23632 | 30925 ft | 518 kts | 27° |
| 2026-05-01 12:05 | 42.67963 | -73.18163 | 30941 ft | 519 kts | 34° |
| 2026-05-01 12:05 | 42.76920 | -73.09715 | 30948 ft | 524 kts | 34° |
| 2026-05-01 12:06 | 42.82960 | -73.04122 | 30950 ft | 525 kts | 34° |
| 2026-05-01 12:06 | 42.89006 | -72.98538 | 30946 ft | 525 kts | 34° |
| 2026-05-01 12:07 | 42.95034 | -72.92952 | 30948 ft | 523 kts | 34° |
| 2026-05-01 12:07 | 43.01041 | -72.87369 | 30941 ft | 521 kts | 34° |
| 2026-05-01 12:08 | 43.07029 | -72.81785 | 30951 ft | 520 kts | 33° |
| 2026-05-01 12:08 | 43.12998 | -72.76204 | 30933 ft | 520 kts | 33° |
| 2026-05-01 12:09 | 43.18927 | -72.70646 | 30928 ft | 519 kts | 34° |
| 2026-05-01 12:09 | 43.24889 | -72.65049 | 30933 ft | 519 kts | 34° |
| 2026-05-01 12:10 | 43.33835 | -72.56627 | 30935 ft | 520 kts | 34° |
| 2026-05-01 12:11 | 43.42791 | -72.48159 | 30931 ft | 521 kts | 34° |
| 2026-05-01 12:11 | 43.48770 | -72.42493 | 30935 ft | 522 kts | 35° |
| 2026-05-01 12:12 | 43.54739 | -72.36817 | 30933 ft | 522 kts | 35° |
| 2026-05-01 12:12 | 43.60713 | -72.31126 | 30922 ft | 522 kts | 35° |
| 2026-05-01 12:13 | 43.66683 | -72.25422 | 30934 ft | 522 kts | 36° |
| 2026-05-01 12:13 | 43.72659 | -72.19699 | 30931 ft | 523 kts | 36° |
| 2026-05-01 12:14 | 43.78641 | -72.13955 | 30928 ft | 523 kts | 36° |
| 2026-05-01 12:14 | 43.84619 | -72.08205 | 30923 ft | 524 kts | 36° |
| 2026-05-01 12:15 | 43.90597 | -72.02436 | 30913 ft | 524 kts | 36° |
| 2026-05-01 12:15 | 43.96571 | -71.96655 | 30918 ft | 524 kts | 36° |
| 2026-05-01 12:16 | 44.02554 | -71.90859 | 30913 ft | 524 kts | 36° |
| 2026-05-01 12:16 | 44.08526 | -71.85053 | 30900 ft | 523 kts | 36° |
| 2026-05-01 12:17 | 44.14446 | -71.79283 | 30912 ft | 523 kts | 36° |
| 2026-05-01 12:17 | 44.20399 | -71.73470 | 30905 ft | 522 kts | 37° |
| 2026-05-01 12:18 | 44.26348 | -71.67644 | 30914 ft | 522 kts | 37° |
| 2026-05-01 12:18 | 44.32289 | -71.61807 | 30914 ft | 522 kts | 37° |
| 2026-05-01 12:19 | 44.38225 | -71.55962 | 30905 ft | 522 kts | 37° |
| 2026-05-01 12:19 | 44.44164 | -71.50105 | 30904 ft | 522 kts | 37° |
| 2026-05-01 12:20 | 44.50099 | -71.44237 | 30912 ft | 522 kts | 38° |
| 2026-05-01 12:20 | 44.56021 | -71.38361 | 30900 ft | 522 kts | 38° |
| 2026-05-01 12:21 | 44.61941 | -71.32474 | 30898 ft | 521 kts | 38° |
| 2026-05-01 12:21 | 44.67856 | -71.26580 | 30877 ft | 521 kts | 38° |
| 2026-05-01 12:22 | 44.72758 | -71.21677 | 30882 ft | 520 kts | 38° |
| 2026-05-01 12:22 | 44.78659 | -71.15770 | 30885 ft | 521 kts | 39° |
| 2026-05-01 12:23 | 44.84497 | -71.09747 | 30869 ft | 519 kts | 43° |
| 2026-05-01 12:23 | 44.89681 | -71.02756 | 30876 ft | 514 kts | 50° |
| 2026-05-01 12:24 | 44.94706 | -70.95563 | 30867 ft | 514 kts | 50° |
| 2026-05-01 12:24 | 44.99743 | -70.88399 | 30868 ft | 514 kts | 49° |
| 2026-05-01 12:25 | 45.07329 | -70.77669 | 30851 ft | 515 kts | 49° |
| 2026-05-01 12:26 | 45.12391 | -70.70506 | 30848 ft | 514 kts | 50° |
| 2026-05-01 12:26 | 45.19954 | -70.59736 | 30851 ft | 513 kts | 50° |
| 2026-05-01 12:27 | 45.27496 | -70.48957 | 30842 ft | 513 kts | 50° |
| 2026-05-01 12:28 | 45.34978 | -70.38225 | 30841 ft | 512 kts | 50° |
| 2026-05-01 12:29 | 45.42484 | -70.27418 | 30832 ft | 511 kts | 50° |
| 2026-05-01 12:29 | 45.49965 | -70.16596 | 30818 ft | 511 kts | 51° |
| 2026-05-01 12:30 | 45.57429 | -70.05761 | 30801 ft | 510 kts | 51° |
| 2026-05-01 12:31 | 45.62402 | -69.98516 | 30798 ft | 510 kts | 51° |
| 2026-05-01 12:31 | 45.67368 | -69.91262 | 30781 ft | 511 kts | 51° |
| 2026-05-01 12:32 | 45.72334 | -69.83990 | 30801 ft | 511 kts | 51° |
| 2026-05-01 12:32 | 45.79767 | -69.73066 | 30794 ft | 510 kts | 51° |
| 2026-05-01 12:33 | 45.84715 | -69.65766 | 30778 ft | 510 kts | 51° |
| 2026-05-01 12:33 | 45.89660 | -69.58456 | 30784 ft | 510 kts | 51° |
| 2026-05-01 12:34 | 45.94594 | -69.51140 | 30780 ft | 510 kts | 51° |
| 2026-05-01 12:34 | 45.99521 | -69.43814 | 30784 ft | 510 kts | 51° |
| 2026-05-01 12:35 | 46.04456 | -69.36461 | 30778 ft | 510 kts | 52° |
| 2026-05-01 12:35 | 46.09376 | -69.29107 | 30779 ft | 510 kts | 52° |
| 2026-05-01 12:36 | 46.14255 | -69.21789 | 30779 ft | 510 kts | 52° |
| 2026-05-01 12:36 | 46.19159 | -69.14415 | 30781 ft | 510 kts | 52° |
| 2026-05-01 12:37 | 46.24063 | -69.07022 | 30775 ft | 509 kts | 52° |
| 2026-05-01 12:37 | 46.28957 | -68.99629 | 30779 ft | 508 kts | 52° |
| 2026-05-01 12:38 | 46.33865 | -68.92188 | 30781 ft | 508 kts | 52° |
| 2026-05-01 12:38 | 46.38709 | -68.84827 | 30776 ft | 507 kts | 52° |
| 2026-05-01 12:39 | 46.43570 | -68.77418 | 30770 ft | 507 kts | 52° |
| 2026-05-01 12:39 | 46.48427 | -68.69997 | 30772 ft | 507 kts | 52° |
| 2026-05-01 12:40 | 46.53318 | -68.62505 | 30760 ft | 507 kts | 53° |
| 2026-05-01 12:40 | 46.58167 | -68.55052 | 30754 ft | 507 kts | 53° |
| 2026-05-01 12:41 | 46.62978 | -68.47639 | 30748 ft | 507 kts | 53° |
| 2026-05-01 12:41 | 46.67812 | -68.40168 | 30743 ft | 507 kts | 53° |
| 2026-05-01 12:42 | 46.72639 | -68.32690 | 30750 ft | 507 kts | 53° |
| 2026-05-01 12:42 | 46.77464 | -68.25190 | 30749 ft | 507 kts | 53° |
| 2026-05-01 12:43 | 46.82286 | -68.17673 | 30745 ft | 507 kts | 53° |
| 2026-05-01 12:43 | 46.87098 | -68.10152 | 30734 ft | 507 kts | 53° |
| 2026-05-01 12:44 | 46.91919 | -68.02597 | 30735 ft | 507 kts | 53° |
| 2026-05-01 12:45 | 47.01538 | -67.87461 | 30749 ft | 508 kts | 53° |
| 2026-05-01 12:45 | 47.06341 | -67.79864 | 30734 ft | 508 kts | 53° |
| 2026-05-01 12:46 | 47.11145 | -67.72249 | 30747 ft | 508 kts | 53° |
| 2026-05-01 12:46 | 47.15941 | -67.64623 | 30733 ft | 508 kts | 53° |
| 2026-05-01 12:47 | 47.20737 | -67.56980 | 30750 ft | 508 kts | 53° |
| 2026-05-01 12:47 | 47.25521 | -67.49331 | 30749 ft | 508 kts | 53° |
| 2026-05-01 12:48 | 47.30304 | -67.41661 | 30748 ft | 508 kts | 53° |
| 2026-05-01 12:48 | 47.35081 | -67.33981 | 30761 ft | 508 kts | 53° |
| 2026-05-01 12:49 | 47.40229 | -67.26758 | 30766 ft | 516 kts | 44° |
| 2026-05-01 12:49 | 47.45879 | -67.20218 | 30775 ft | 516 kts | 43° |
| 2026-05-01 12:50 | 47.51509 | -67.13741 | 30784 ft | 516 kts | 43° |
| 2026-05-01 12:50 | 47.57156 | -67.07160 | 30781 ft | 516 kts | 43° |
| 2026-05-01 12:51 | 47.62778 | -67.00542 | 30796 ft | 516 kts | 44° |
| 2026-05-01 12:52 | 47.71192 | -66.90583 | 30809 ft | 516 kts | 43° |
| 2026-05-01 12:52 | 47.79586 | -66.80614 | 30821 ft | 514 kts | 43° |
| 2026-05-01 12:53 | 47.87957 | -66.70623 | 30822 ft | 514 kts | 43° |
| 2026-05-01 12:54 | 47.93527 | -66.63957 | 30828 ft | 513 kts | 43° |
| 2026-05-01 12:54 | 48.01869 | -66.53938 | 30834 ft | 513 kts | 43° |
| 2026-05-01 12:55 | 48.07454 | -66.47201 | 31136 ft | 518 kts | 43° |
| 2026-05-01 12:55 | 48.10243 | -66.43831 | 31488 ft | 516 kts | 43° |
| 2026-05-01 12:55 | 48.13029 | -66.40462 | 31832 ft | 515 kts | 43° |
| 2026-05-01 12:56 | 48.15812 | -66.37090 | 32121 ft | 515 kts | 43° |
| 2026-05-01 12:56 | 48.18601 | -66.33706 | 32346 ft | 516 kts | 43° |
| 2026-05-01 12:56 | 48.21391 | -66.30319 | 32598 ft | 516 kts | 43° |
| 2026-05-01 12:56 | 48.24182 | -66.26923 | 32788 ft | 517 kts | 43° |
| 2026-05-01 12:57 | 48.26981 | -66.23506 | 32770 ft | 520 kts | 43° |
| 2026-05-01 12:57 | 48.35362 | -66.13260 | 32867 ft | 516 kts | 43° |
| 2026-05-01 12:58 | 48.40929 | -66.06436 | 32883 ft | 516 kts | 43° |
| 2026-05-01 12:59 | 48.49237 | -65.96206 | 32886 ft | 517 kts | 43° |
| 2026-05-01 12:59 | 48.57583 | -65.85885 | 32900 ft | 516 kts | 42° |
| 2026-05-01 13:00 | 48.65899 | -65.75562 | 32909 ft | 515 kts | 43° |
| 2026-05-01 13:01 | 48.74190 | -65.65212 | 32918 ft | 515 kts | 42° |
| 2026-05-01 13:02 | 48.82480 | -65.54823 | 32945 ft | 515 kts | 42° |
| 2026-05-01 13:07 | 49.42710 | -64.77940 | 32980 ft | 510 kts | 42° |
| 2026-05-01 13:08 | 49.48086 | -64.70954 | 32996 ft | 509 kts | 42° |
| 2026-05-01 13:08 | 49.53487 | -64.63916 | 33005 ft | 509 kts | 42° |
| 2026-05-01 13:09 | 49.58877 | -64.56870 | 33001 ft | 508 kts | 42° |
| 2026-05-01 13:09 | 49.64248 | -64.49822 | 33004 ft | 506 kts | 41° |
| 2026-05-01 13:10 | 49.68728 | -64.43936 | 33015 ft | 504 kts | 41° |
| 2026-05-01 13:10 | 49.74058 | -64.36908 | 33027 ft | 503 kts | 41° |
| 2026-05-01 13:11 | 49.79367 | -64.29883 | 33046 ft | 502 kts | 41° |
| 2026-05-01 13:11 | 49.84666 | -64.22854 | 33049 ft | 501 kts | 41° |
| 2026-05-01 13:12 | 49.89951 | -64.15823 | 33054 ft | 500 kts | 42° |
| 2026-05-01 13:12 | 49.95230 | -64.08779 | 33067 ft | 500 kts | 41° |
| 2026-05-01 13:13 | 50.00500 | -64.01724 | 33071 ft | 500 kts | 42° |
| 2026-05-01 13:13 | 50.05760 | -63.94664 | 33078 ft | 500 kts | 42° |
| 2026-05-01 13:14 | 50.11020 | -63.87582 | 33086 ft | 500 kts | 42° |
| 2026-05-01 13:14 | 50.16238 | -63.80537 | 33084 ft | 500 kts | 42° |
| 2026-05-01 13:15 | 50.21487 | -63.73421 | 33093 ft | 500 kts | 42° |
| 2026-05-01 13:15 | 50.26736 | -63.66288 | 33101 ft | 500 kts | 42° |
| 2026-05-01 13:16 | 50.31989 | -63.59141 | 33101 ft | 501 kts | 42° |
| 2026-05-01 13:16 | 50.37236 | -63.51958 | 33091 ft | 501 kts | 42° |
| 2026-05-01 13:17 | 50.47714 | -63.37570 | 33084 ft | 501 kts | 43° |
| 2026-05-01 13:18 | 50.55553 | -63.26745 | 33093 ft | 500 kts | 43° |
| 2026-05-01 13:18 | 50.60771 | -63.19507 | 33093 ft | 500 kts | 43° |
| 2026-05-01 13:19 | 50.65984 | -63.12261 | 33096 ft | 500 kts | 43° |
| 2026-05-01 13:20 | 50.73793 | -63.01372 | 33105 ft | 500 kts | 43° |
| 2026-05-01 13:20 | 50.78966 | -62.94124 | 33106 ft | 499 kts | 43° |
| 2026-05-01 13:21 | 50.86748 | -62.83173 | 33110 ft | 499 kts | 43° |
| 2026-05-01 13:21 | 50.91927 | -62.75857 | 33113 ft | 499 kts | 43° |
| 2026-05-01 13:22 | 50.97106 | -62.68518 | 33122 ft | 499 kts | 43° |
| 2026-05-01 13:22 | 51.02279 | -62.61172 | 33118 ft | 499 kts | 43° |
| 2026-05-01 13:23 | 51.07445 | -62.53810 | 33123 ft | 499 kts | 43° |
| 2026-05-01 13:23 | 51.12599 | -62.46440 | 33118 ft | 498 kts | 43° |
| 2026-05-01 13:24 | 51.17752 | -62.39053 | 33127 ft | 498 kts | 43° |
| 2026-05-01 13:25 | 51.25477 | -62.27929 | 33131 ft | 499 kts | 43° |
| 2026-05-01 13:25 | 51.30620 | -62.20495 | 33130 ft | 499 kts | 43° |
| 2026-05-01 13:26 | 51.35759 | -62.13042 | 33128 ft | 499 kts | 43° |
| 2026-05-01 13:26 | 51.40898 | -62.05568 | 33132 ft | 499 kts | 43° |
| 2026-05-01 13:27 | 51.46032 | -61.98074 | 33129 ft | 499 kts | 43° |
| 2026-05-01 13:27 | 51.53710 | -61.86830 | 33125 ft | 500 kts | 43° |